createdAt,value
2023-05-05T00:04:09.950Z,100161.47
2023-05-05T00:14:31.447Z,100160.31
2023-05-05T00:24:53.148Z,100164.00
2023-05-05T00:35:17.939Z,100162.66
2023-05-05T00:45:42.804Z,100174.25
2023-05-05T00:56:04.635Z,100157.69
2023-05-05T01:06:50.884Z,100169.84
2023-05-05T01:17:27.477Z,100172.44
2023-05-05T01:28:06.379Z,100161.09
2023-05-05T01:38:34.855Z,100155.09
2023-05-05T01:48:57.694Z,100164.09
2023-05-05T01:59:20.409Z,100176.81
2023-05-05T02:09:43.583Z,100174.50
2023-05-05T02:20:08.267Z,100170.94
2023-05-05T02:30:33.334Z,100157.53
2023-05-05T02:40:56.578Z,100171.75
2023-05-05T02:51:18.269Z,100167.66
2023-05-05T03:01:57.316Z,100178.66
2023-05-05T03:12:24.548Z,100189.41
2023-05-05T03:22:55.212Z,100179.44
2023-05-05T03:33:17.249Z,100179.75
2023-05-05T03:43:41.347Z,100158.06
2023-05-05T03:54:03.650Z,100177.09
2023-05-05T04:04:25.896Z,100199.56
2023-05-05T04:14:48.778Z,100218.78
2023-05-05T04:25:11.132Z,100196.53
2023-05-05T04:35:33.273Z,100209.63
2023-05-05T04:45:56.112Z,100223.75
2023-05-05T04:56:22.037Z,100230.41
2023-05-05T05:06:43.941Z,100236.19
2023-05-05T05:17:06.633Z,100253.78
2023-05-05T05:27:28.706Z,100249.38
2023-05-05T05:37:51.814Z,100245.25
2023-05-05T05:48:13.897Z,100250.13
2023-05-05T05:58:35.622Z,100250.16
2023-05-05T06:08:57.593Z,100252.56
2023-05-05T06:19:19.648Z,100248.22
2023-05-05T06:29:41.684Z,100244.19
2023-05-05T06:40:03.730Z,100250.13
2023-05-05T06:50:25.098Z,100241.72
2023-05-05T07:00:46.649Z,100234.22
2023-05-05T07:11:08.245Z,100223.66
2023-05-05T07:21:29.956Z,100227.78
2023-05-05T07:31:52.163Z,100232.13
2023-05-05T07:42:13.883Z,100236.13
2023-05-05T07:52:46.567Z,100238.41
2023-05-05T08:03:12.146Z,100242.03
2023-05-05T08:13:34.826Z,100227.50
2023-05-05T08:23:56.699Z,100228.38
2023-05-05T08:34:18.596Z,100230.66
2023-05-05T08:44:39.844Z,100218.09
2023-05-05T08:55:29.155Z,100223.91
2023-05-05T09:05:51.598Z,100213.66
2023-05-05T09:16:13.265Z,100214.88
2023-05-05T09:26:36.595Z,100217.34
2023-05-05T09:36:57.868Z,100205.41
2023-05-05T09:47:29.634Z,100189.47
2023-05-05T09:57:51.519Z,100190.63
2023-05-05T10:08:13.795Z,100189.06
2023-05-05T10:18:36.101Z,100172.91
2023-05-05T10:29:04.009Z,100165.53
2023-05-05T10:39:26.401Z,100153.03
2023-05-05T10:49:50.937Z,100143.91
2023-05-05T11:00:39.007Z,100149.38
2023-05-05T11:11:00.862Z,100147.63
2023-05-05T11:21:23.016Z,100124.56
2023-05-05T11:31:47.816Z,100124.59
2023-05-05T11:42:23.713Z,100111.78
2023-05-05T11:52:45.615Z,100099.34
2023-05-05T12:03:07.223Z,100087.19
2023-05-05T12:13:29.959Z,100086.13
2023-05-05T12:23:51.587Z,100076.72
2023-05-05T12:34:13.528Z,100052.88
2023-05-05T12:44:36.379Z,100048.25
2023-05-05T12:54:59.491Z,100053.91
2023-05-05T13:05:36.245Z,100029.72
2023-05-05T13:15:58.231Z,100038.38
2023-05-05T13:26:20.184Z,100046.94
2023-05-05T13:36:41.859Z,100041.66
2023-05-05T13:47:03.823Z,100023.88
2023-05-05T13:57:25.452Z,100022.66
2023-05-05T14:07:47.442Z,100029.00
2023-05-05T14:18:09.116Z,100024.19
2023-05-05T14:28:31.069Z,100017.47
2023-05-05T14:38:52.873Z,99997.31
2023-05-05T14:49:14.324Z,99984.03
2023-05-05T14:59:35.934Z,99985.38
2023-05-05T15:09:57.643Z,99983.66
2023-05-05T15:20:18.948Z,99982.88
2023-05-05T15:30:40.959Z,99993.09
2023-05-05T15:41:02.760Z,99992.97
2023-05-05T15:51:24.098Z,99996.19
2023-05-05T16:01:45.858Z,99992.00
2023-05-05T16:12:07.568Z,99995.47
2023-05-05T16:22:29.103Z,100007.00
2023-05-05T16:32:51.835Z,100011.66
2023-05-05T16:43:13.753Z,100008.88
2023-05-05T16:53:35.282Z,100025.69
2023-05-05T17:04:01.917Z,100026.72
2023-05-05T17:14:24.510Z,100042.00
2023-05-05T17:24:45.881Z,100044.47
2023-05-05T17:35:08.302Z,100056.69
2023-05-05T17:45:30.717Z,100065.13
2023-05-05T17:55:52.213Z,100069.69
2023-05-05T18:06:13.881Z,100069.06
2023-05-05T18:16:36.117Z,100077.78
2023-05-05T18:26:58.716Z,100089.97
2023-05-05T18:37:20.434Z,100093.59
2023-05-05T18:47:42.431Z,100098.50
2023-05-05T18:59:42.132Z,100100.53
2023-05-05T19:10:07.489Z,100110.72
2023-05-05T19:20:31.699Z,100103.69
2023-05-05T19:30:53.037Z,100119.78
2023-05-05T19:41:14.892Z,100116.03
2023-05-05T19:51:36.904Z,100108.66
2023-05-05T20:01:58.536Z,100125.28
2023-05-05T20:12:21.955Z,100124.44
2023-05-05T20:22:44.444Z,100147.28
2023-05-05T20:33:06.171Z,100141.47
2023-05-05T20:43:27.614Z,100139.56
2023-05-05T20:53:49.133Z,100139.22
2023-05-05T21:04:10.851Z,100172.28
2023-05-05T21:14:32.167Z,100178.78
2023-05-05T21:24:54.253Z,100184.16
2023-05-05T21:35:16.009Z,100189.84
2023-05-05T21:45:37.822Z,100207.25
2023-05-05T21:55:59.681Z,100201.66
2023-05-05T22:06:21.428Z,100211.91
2023-05-05T22:16:43.621Z,100225.81
2023-05-05T22:27:05.325Z,100222.72
2023-05-05T22:37:26.957Z,100225.88
2023-05-05T22:47:49.101Z,100236.53
2023-05-05T22:58:11.521Z,100237.88
2023-05-05T23:08:33.055Z,100230.97
2023-05-05T23:18:54.716Z,100241.63
2023-05-05T23:29:16.219Z,100244.66
2023-05-05T23:39:37.707Z,100245.72
2023-05-05T23:49:59.403Z,100246.00
